»·PEaware :: N119BK KPOC-KPSP

N119BK :: KPOC-KPSP

FLIGHT INFORMATION

Flight Status: Arrived
Operator: Privately registered:
United States
More flights under this callsign
Pilot: Moussa A. (33317)
Aircraft: SOCATA TBM-900
(TBM9)
More flights by this aircraft type
Origin: KPOC Brackett
United States
Destination: KPSP Palm Springs Intl
United States
More flights between these airports :: More routes between these airports
Route: PRADO V16 PDZ V186 NIKKL V64 TRM
File this flight plan on PilotEdge
Remarks:
Altitude:
(Current/Filed)
14,000ft
Speed:
(Current/Filed)
300kts
Departed: 30-May-23 12:57 PM
Arrived: 30-May-23 01:37 PM
Distance/Time
Traveled:
65nm/0:40
Distance/Time
To Go:
Arrived

Flight Plot

Page will automatically refresh every two minutes.

Flight plan parsing failed; only flown route is shown


Map Options




Map Legend


Flown Route
Filed Route
Departure Airport
Arrival Airport
Navaid (VOR, NDB)
Fix

Horizontal Profiles

Position Reports

Time Latitude Longitude Heading Altitude Ground
Speed
30-May-23 12:29 34.090309 -117.782654 0 992ft 0kts
30-May-23 12:30 34.090309 -117.782654 0 992ft 0kts
30-May-23 12:31 34.090309 -117.782654 0 992ft 0kts
30-May-23 12:32 34.090309 -117.782654 0 992ft 0kts
30-May-23 12:33 34.090309 -117.782654 0 992ft 0kts
30-May-23 12:34 34.090309 -117.782654 0 992ft 0kts
30-May-23 12:35 34.090309 -117.782654 0 992ft 0kts
30-May-23 12:36 34.090309 -117.782654 0 992ft 0kts
30-May-23 12:37 34.090309 -117.782654 0 992ft 0kts
30-May-23 12:38 34.090309 -117.782654 0 992ft 0kts
30-May-23 12:39 34.090309 -117.782654 0 992ft 0kts
30-May-23 12:40 34.090309 -117.782654 0 992ft 0kts
30-May-23 12:41 34.090309 -117.782654 0 992ft 0kts
30-May-23 12:42 34.090309 -117.782654 0 992ft 0kts
30-May-23 12:43 34.090309 -117.782654 0 992ft 0kts
30-May-23 12:44 34.090309 -117.782654 0 992ft 0kts
30-May-23 12:45 34.090309 -117.782654 0 992ft 0kts
30-May-23 12:46 34.090309 -117.782654 0 992ft 0kts
30-May-23 12:47 34.090437 -117.782625 19 992ft 4kts
30-May-23 12:48 34.090476 -117.778637 92 997ft 20kts
30-May-23 12:49 34.090535 -117.774645 5 1004ft 0kts
30-May-23 12:50 34.090535 -117.774645 5 1004ft 0kts
30-May-23 12:51 34.090535 -117.774645 5 1004ft 0kts
30-May-23 12:52 34.090535 -117.774645 5 1004ft 0kts
30-May-23 12:53 34.090541 -117.774645 5 1004ft 1kts
30-May-23 12:54 34.091065 -117.776662 273 1003ft 0kts
30-May-23 12:55 34.091065 -117.776662 273 1003ft 0kts
30-May-23 12:56 34.091974 -117.790824 273 1207ft 123kts
30-May-23 12:57 34.074192 -117.817141 140 3250ft 166kts
30-May-23 12:58 34.045129 -117.776996 125 5693ft 161kts
30-May-23 12:59 34.022070 -117.731897 124 7892ft 159kts
30-May-23 13:00 33.997079 -117.683183 123 9018ft 204kts
30-May-23 13:01 33.964508 -117.619639 123 8995ft 233kts
30-May-23 13:02 33.929866 -117.552333 123 8992ft 238kts
30-May-23 13:03 33.882222 -117.499464 145 8994ft 236kts
30-May-23 13:04 33.837089 -117.461936 142 11277ft 183kts
30-May-23 13:05 33.794403 -117.426128 141 12653ft 191kts
30-May-23 13:06 33.746665 -117.386136 142 12992ft 229kts
30-May-23 13:07 33.726182 -117.316837 96 12984ft 239kts
30-May-23 13:08 33.719983 -117.237215 97 12963ft 242kts
30-May-23 13:09 33.713460 -117.156742 97 12957ft 242kts
30-May-23 13:10 33.706864 -117.076140 97 12954ft 243kts
30-May-23 13:11 33.700140 -116.994783 97 12954ft 247kts
30-May-23 13:12 33.693251 -116.912063 97 12954ft 251kts
30-May-23 13:13 33.686232 -116.828390 97 13106ft 252kts
30-May-23 13:14 33.679031 -116.743416 96 12414ft 264kts
30-May-23 13:15 33.671479 -116.654748 97 10919ft 269kts
30-May-23 13:16 33.664650 -116.564777 96 9418ft 271kts
30-May-23 13:17 33.658105 -116.478236 98 8973ft 245kts
30-May-23 13:18 33.649328 -116.399452 97 8962ft 233kts
30-May-23 13:19 33.642516 -116.322225 97 8659ft 242kts
30-May-23 13:20 33.635208 -116.239697 97 7174ft 239kts
30-May-23 13:21 33.627967 -116.164810 98 5649ft 218kts
30-May-23 13:22 33.620897 -116.097631 77 4363ft 184kts
30-May-23 13:23 33.620818 -116.050006 157 4011ft 135kts
30-May-23 13:24 33.604703 -116.082827 266 4045ft 140kts
30-May-23 13:25 33.611507 -116.127981 308 3953ft 145kts
30-May-23 13:26 33.632284 -116.167899 304 3952ft 145kts
30-May-23 13:27 33.655983 -116.208135 302 3776ft 152kts
30-May-23 13:28 33.680639 -116.251726 302 3366ft 159kts
30-May-23 13:29 33.705491 -116.294762 301 3111ft 153kts
30-May-23 13:30 33.729527 -116.336179 300 2974ft 145kts
30-May-23 13:31 33.750843 -116.373681 301 3083ft 125kts
30-May-23 13:32 33.770944 -116.408133 301 2905ft 119kts
30-May-23 13:33 33.789107 -116.439533 302 2317ft 115kts
30-May-23 13:34 33.801546 -116.476951 295 1241ft 121kts
30-May-23 13:35 33.821309 -116.500131 322 473ft 86kts
30-May-23 13:36 33.827881 -116.507205 182 420ft 0kts
30-May-23 13:37 33.827412 -116.507205 180 419ft 9kts
30-May-23 13:38 33.825355 -116.507799 270 416ft 10kts
30-May-23 13:39 33.825109 -116.509249 2 418ft 0kts
30-May-23 13:40 33.825109 -116.509249 2 418ft 0kts
30-May-23 13:41 33.825109 -116.509249 2 418ft 0kts

Navigation Log

Ident Type
Flight plan parsing failed, navigation log unavailable